sensor_id;sensor_type;location;lat;lon;timestamp;temperature;humidity
17992;DHT22;9121;50.926;5.340;2022-09-28T00:00:42;10.00;99.90
17992;DHT22;9121;50.926;5.340;2022-09-28T00:03:11;10.00;99.90
17992;DHT22;9121;50.926;5.340;2022-09-28T00:05:38;10.00;99.90
17992;DHT22;9121;50.926;5.340;2022-09-28T00:08:05;10.00;99.90
17992;DHT22;9121;50.926;5.340;2022-09-28T00:10:33;10.00;99.90
17992;DHT22;9121;50.926;5.340;2022-09-28T00:13:00;10.00;99.90
17992;DHT22;9121;50.926;5.340;2022-09-28T00:15:27;10.00;99.90
17992;DHT22;9121;50.926;5.340;2022-09-28T00:17:54;10.00;99.90
17992;DHT22;9121;50.926;5.340;2022-09-28T00:20:21;10.00;99.90
17992;DHT22;9121;50.926;5.340;2022-09-28T00:22:48;10.10;99.90
17992;DHT22;9121;50.926;5.340;2022-09-28T00:25:16;10.10;99.90
17992;DHT22;9121;50.926;5.340;2022-09-28T00:27:48;10.10;99.90
17992;DHT22;9121;50.926;5.340;2022-09-28T00:30:15;10.00;99.90
17992;DHT22;9121;50.926;5.340;2022-09-28T00:32:42;10.10;99.90
17992;DHT22;9121;50.926;5.340;2022-09-28T00:35:09;10.20;99.90
17992;DHT22;9121;50.926;5.340;2022-09-28T00:37:36;10.10;99.90
17992;DHT22;9121;50.926;5.340;2022-09-28T00:40:04;10.10;99.90
17992;DHT22;9121;50.926;5.340;2022-09-28T00:42:31;10.20;99.90
17992;DHT22;9121;50.926;5.340;2022-09-28T00:44:59;10.20;99.90
17992;DHT22;9121;50.926;5.340;2022-09-28T00:47:44;10.20;99.90
17992;DHT22;9121;50.926;5.340;2022-09-28T00:50:21;10.20;99.90
17992;DHT22;9121;50.926;5.340;2022-09-28T00:52:53;10.10;99.90
17992;DHT22;9121;50.926;5.340;2022-09-28T00:55:27;10.10;99.90
17992;DHT22;9121;50.926;5.340;2022-09-28T00:58:00;10.10;99.90
17992;DHT22;9121;50.926;5.340;2022-09-28T01:00:30;10.10;99.90
17992;DHT22;9121;50.926;5.340;2022-09-28T01:02:57;10.10;99.90
17992;DHT22;9121;50.926;5.340;2022-09-28T01:05:25;10.10;99.90
17992;DHT22;9121;50.926;5.340;2022-09-28T01:07:54;10.00;99.90
17992;DHT22;9121;50.926;5.340;2022-09-28T01:10:22;10.10;99.90
17992;DHT22;9121;50.926;5.340;2022-09-28T01:12:49;10.10;99.90
17992;DHT22;9121;50.926;5.340;2022-09-28T01:15:16;10.10;99.90
17992;DHT22;9121;50.926;5.340;2022-09-28T01:18:00;10.10;99.90
17992;DHT22;9121;50.926;5.340;2022-09-28T01:20:56;10.10;99.90
17992;DHT22;9121;50.926;5.340;2022-09-28T01:23:42;10.00;99.90
17992;DHT22;9121;50.926;5.340;2022-09-28T01:26:40;10.00;99.90
17992;DHT22;9121;50.926;5.340;2022-09-28T01:29:19;9.90;99.90
17992;DHT22;9121;50.926;5.340;2022-09-28T01:31:50;9.90;99.90
17992;DHT22;9121;50.926;5.340;2022-09-28T01:34:22;9.90;99.90
17992;DHT22;9121;50.926;5.340;2022-09-28T01:36:53;9.90;99.90
17992;DHT22;9121;50.926;5.340;2022-09-28T01:39:25;9.90;99.90
17992;DHT22;9121;50.926;5.340;2022-09-28T01:41:59;9.90;99.90
17992;DHT22;9121;50.926;5.340;2022-09-28T01:44:31;9.80;99.90
17992;DHT22;9121;50.926;5.340;2022-09-28T01:47:02;9.80;99.90
17992;DHT22;9121;50.926;5.340;2022-09-28T01:49:33;9.80;99.90
17992;DHT22;9121;50.926;5.340;2022-09-28T01:52:03;9.80;99.90
17992;DHT22;9121;50.926;5.340;2022-09-28T01:54:35;9.80;99.90
17992;DHT22;9121;50.926;5.340;2022-09-28T01:57:08;9.80;99.90
17992;DHT22;9121;50.926;5.340;2022-09-28T01:59:37;9.90;99.90
17992;DHT22;9121;50.926;5.340;2022-09-28T02:02:10;9.80;99.90
17992;DHT22;9121;50.926;5.340;2022-09-28T02:04:39;9.70;99.90
17992;DHT22;9121;50.926;5.340;2022-09-28T02:07:11;9.80;99.90
17992;DHT22;9121;50.926;5.340;2022-09-28T02:09:44;9.80;99.90
17992;DHT22;9121;50.926;5.340;2022-09-28T02:12:17;9.70;99.90
17992;DHT22;9121;50.926;5.340;2022-09-28T02:14:48;9.70;99.90
17992;DHT22;9121;50.926;5.340;2022-09-28T02:17:18;9.70;99.90
17992;DHT22;9121;50.926;5.340;2022-09-28T02:19:45;9.70;99.90
17992;DHT22;9121;50.926;5.340;2022-09-28T02:22:18;9.70;99.90
17992;DHT22;9121;50.926;5.340;2022-09-28T02:24:54;9.70;99.90
17992;DHT22;9121;50.926;5.340;2022-09-28T02:27:30;9.70;99.90
17992;DHT22;9121;50.926;5.340;2022-09-28T02:29:59;9.70;99.90
17992;DHT22;9121;50.926;5.340;2022-09-28T02:32:27;9.70;99.90
17992;DHT22;9121;50.926;5.340;2022-09-28T02:34:54;9.70;99.90
17992;DHT22;9121;50.926;5.340;2022-09-28T02:37:21;9.80;99.90
17992;DHT22;9121;50.926;5.340;2022-09-28T02:39:48;9.80;99.90
17992;DHT22;9121;50.926;5.340;2022-09-28T02:42:20;9.70;99.90
17992;DHT22;9121;50.926;5.340;2022-09-28T02:44:59;9.70;99.90
17992;DHT22;9121;50.926;5.340;2022-09-28T02:47:43;9.70;99.90
17992;DHT22;9121;50.926;5.340;2022-09-28T02:50:18;9.70;99.90
17992;DHT22;9121;50.926;5.340;2022-09-28T02:53:05;9.70;99.90
17992;DHT22;9121;50.926;5.340;2022-09-28T02:55:42;9.80;99.90
17992;DHT22;9121;50.926;5.340;2022-09-28T02:58:20;9.80;99.90
17992;DHT22;9121;50.926;5.340;2022-09-28T03:00:56;9.90;99.90
17992;DHT22;9121;50.926;5.340;2022-09-28T03:03:33;9.90;99.90
17992;DHT22;9121;50.926;5.340;2022-09-28T03:06:08;9.90;99.90
17992;DHT22;9121;50.926;5.340;2022-09-28T03:08:39;9.90;99.90
17992;DHT22;9121;50.926;5.340;2022-09-28T03:11:12;9.90;99.90
17992;DHT22;9121;50.926;5.340;2022-09-28T03:13:41;9.90;99.90
17992;DHT22;9121;50.926;5.340;2022-09-28T03:16:11;9.90;99.90
17992;DHT22;9121;50.926;5.340;2022-09-28T03:18:38;9.90;99.90
17992;DHT22;9121;50.926;5.340;2022-09-28T03:21:06;9.80;99.90
17992;DHT22;9121;50.926;5.340;2022-09-28T03:23:34;9.80;99.90
17992;DHT22;9121;50.926;5.340;2022-09-28T03:26:01;9.80;99.90
17992;DHT22;9121;50.926;5.340;2022-09-28T03:28:28;9.80;99.90
17992;DHT22;9121;50.926;5.340;2022-09-28T03:30:55;9.80;99.90
17992;DHT22;9121;50.926;5.340;2022-09-28T03:33:24;9.70;99.90
17992;DHT22;9121;50.926;5.340;2022-09-28T03:35:51;9.70;99.90
17992;DHT22;9121;50.926;5.340;2022-09-28T03:38:18;9.70;99.90
17992;DHT22;9121;50.926;5.340;2022-09-28T03:40:52;9.70;99.90
17992;DHT22;9121;50.926;5.340;2022-09-28T03:43:19;9.60;99.90
17992;DHT22;9121;50.926;5.340;2022-09-28T03:45:51;9.50;99.90
17992;DHT22;9121;50.926;5.340;2022-09-28T03:48:20;9.60;99.90
17992;DHT22;9121;50.926;5.340;2022-09-28T03:50:52;9.60;99.90
17992;DHT22;9121;50.926;5.340;2022-09-28T03:53:19;9.60;99.90
17992;DHT22;9121;50.926;5.340;2022-09-28T03:55:46;9.50;99.90
17992;DHT22;9121;50.926;5.340;2022-09-28T03:58:13;9.60;99.90
17992;DHT22;9121;50.926;5.340;2022-09-28T04:00:40;9.50;99.90
17992;DHT22;9121;50.926;5.340;2022-09-28T04:03:06;9.50;99.90
17992;DHT22;9121;50.926;5.340;2022-09-28T04:05:34;9.50;99.90
17992;DHT22;9121;50.926;5.340;2022-09-28T04:08:03;9.40;99.90
17992;DHT22;9121;50.926;5.340;2022-09-28T04:10:30;9.50;99.90
17992;DHT22;9121;50.926;5.340;2022-09-28T04:12:57;9.60;99.90
17992;DHT22;9121;50.926;5.340;2022-09-28T04:15:24;9.60;99.90
17992;DHT22;9121;50.926;5.340;2022-09-28T04:17:51;9.60;99.90
17992;DHT22;9121;50.926;5.340;2022-09-28T04:20:18;9.70;99.90
17992;DHT22;9121;50.926;5.340;2022-09-28T04:22:45;9.60;99.90
17992;DHT22;9121;50.926;5.340;2022-09-28T04:25:13;9.60;99.90
17992;DHT22;9121;50.926;5.340;2022-09-28T04:27:40;9.70;99.90
17992;DHT22;9121;50.926;5.340;2022-09-28T04:30:25;9.70;99.90
17992;DHT22;9121;50.926;5.340;2022-09-28T04:32:52;9.70;99.90
17992;DHT22;9121;50.926;5.340;2022-09-28T04:35:19;9.70;99.90
17992;DHT22;9121;50.926;5.340;2022-09-28T04:37:46;9.70;99.90
17992;DHT22;9121;50.926;5.340;2022-09-28T04:40:14;9.70;99.90
17992;DHT22;9121;50.926;5.340;2022-09-28T04:42:41;9.60;99.90
17992;DHT22;9121;50.926;5.340;2022-09-28T04:45:09;9.60;99.90
17992;DHT22;9121;50.926;5.340;2022-09-28T04:47:36;9.60;99.90
17992;DHT22;9121;50.926;5.340;2022-09-28T04:50:03;9.50;99.90
17992;DHT22;9121;50.926;5.340;2022-09-28T04:52:30;9.50;99.90
17992;DHT22;9121;50.926;5.340;2022-09-28T04:54:57;9.40;99.90
17992;DHT22;9121;50.926;5.340;2022-09-28T04:57:25;9.50;99.90
17992;DHT22;9121;50.926;5.340;2022-09-28T04:59:52;9.90;99.90
17992;DHT22;9121;50.926;5.340;2022-09-28T05:02:19;9.90;99.90
17992;DHT22;9121;50.926;5.340;2022-09-28T05:04:46;9.70;99.90
17992;DHT22;9121;50.926;5.340;2022-09-28T05:07:13;9.60;99.90
17992;DHT22;9121;50.926;5.340;2022-09-28T05:09:39;9.50;99.90
17992;DHT22;9121;50.926;5.340;2022-09-28T05:12:07;9.40;99.90
17992;DHT22;9121;50.926;5.340;2022-09-28T05:14:36;9.40;99.90
17992;DHT22;9121;50.926;5.340;2022-09-28T05:17:04;9.30;99.90
17992;DHT22;9121;50.926;5.340;2022-09-28T05:19:30;9.20;99.90
17992;DHT22;9121;50.926;5.340;2022-09-28T05:21:59;9.20;99.90
17992;DHT22;9121;50.926;5.340;2022-09-28T05:24:29;9.20;99.90
17992;DHT22;9121;50.926;5.340;2022-09-28T05:26:56;9.10;99.90
17992;DHT22;9121;50.926;5.340;2022-09-28T05:29:23;9.10;99.90
17992;DHT22;9121;50.926;5.340;2022-09-28T05:31:51;9.10;99.90
17992;DHT22;9121;50.926;5.340;2022-09-28T05:34:18;9.10;99.90
17992;DHT22;9121;50.926;5.340;2022-09-28T05:36:45;9.00;99.90
17992;DHT22;9121;50.926;5.340;2022-09-28T05:39:11;9.00;99.90
17992;DHT22;9121;50.926;5.340;2022-09-28T05:41:38;8.90;99.90
17992;DHT22;9121;50.926;5.340;2022-09-28T05:44:05;8.80;99.90
17992;DHT22;9121;50.926;5.340;2022-09-28T05:46:32;8.80;99.90
17992;DHT22;9121;50.926;5.340;2022-09-28T05:49:01;8.80;99.90
17992;DHT22;9121;50.926;5.340;2022-09-28T05:51:28;8.70;99.90
17992;DHT22;9121;50.926;5.340;2022-09-28T05:53:55;8.80;99.90
17992;DHT22;9121;50.926;5.340;2022-09-28T05:56:22;8.80;99.90
17992;DHT22;9121;50.926;5.340;2022-09-28T05:58:49;8.80;99.90
17992;DHT22;9121;50.926;5.340;2022-09-28T06:01:16;8.90;99.90
17992;DHT22;9121;50.926;5.340;2022-09-28T06:03:43;8.90;99.90
17992;DHT22;9121;50.926;5.340;2022-09-28T06:06:11;8.80;99.90
17992;DHT22;9121;50.926;5.340;2022-09-28T06:08:38;8.90;99.90
17992;DHT22;9121;50.926;5.340;2022-09-28T06:11:07;8.90;99.90
17992;DHT22;9121;50.926;5.340;2022-09-28T06:13:37;8.90;99.90
17992;DHT22;9121;50.926;5.340;2022-09-28T06:16:05;8.90;99.90
17992;DHT22;9121;50.926;5.340;2022-09-28T06:18:33;9.00;99.90
17992;DHT22;9121;50.926;5.340;2022-09-28T06:20:59;9.00;99.90
17992;DHT22;9121;50.926;5.340;2022-09-28T06:23:28;9.00;99.90
17992;DHT22;9121;50.926;5.340;2022-09-28T06:25:57;9.00;99.90
17992;DHT22;9121;50.926;5.340;2022-09-28T06:28:24;9.00;99.90
17992;DHT22;9121;50.926;5.340;2022-09-28T06:30:52;9.00;99.90
17992;DHT22;9121;50.926;5.340;2022-09-28T06:33:19;9.00;99.90
17992;DHT22;9121;50.926;5.340;2022-09-28T06:35:46;9.00;99.90
17992;DHT22;9121;50.926;5.340;2022-09-28T06:38:13;9.10;99.90
17992;DHT22;9121;50.926;5.340;2022-09-28T06:40:41;9.20;99.90
17992;DHT22;9121;50.926;5.340;2022-09-28T06:43:10;9.20;99.90
17992;DHT22;9121;50.926;5.340;2022-09-28T06:45:40;9.20;99.90
17992;DHT22;9121;50.926;5.340;2022-09-28T06:48:09;9.30;99.90
17992;DHT22;9121;50.926;5.340;2022-09-28T06:50:38;9.30;99.90
17992;DHT22;9121;50.926;5.340;2022-09-28T06:53:08;9.30;99.90
17992;DHT22;9121;50.926;5.340;2022-09-28T06:55:38;9.40;99.90
17992;DHT22;9121;50.926;5.340;2022-09-28T06:58:09;9.40;99.90
17992;DHT22;9121;50.926;5.340;2022-09-28T07:00:37;9.50;99.90
17992;DHT22;9121;50.926;5.340;2022-09-28T07:03:05;9.60;99.90
17992;DHT22;9121;50.926;5.340;2022-09-28T07:05:34;9.60;99.90
17992;DHT22;9121;50.926;5.340;2022-09-28T07:08:02;9.60;99.90
17992;DHT22;9121;50.926;5.340;2022-09-28T07:10:30;9.60;99.90
17992;DHT22;9121;50.926;5.340;2022-09-28T07:13:00;9.60;99.90
17992;DHT22;9121;50.926;5.340;2022-09-28T07:15:30;9.60;99.90
17992;DHT22;9121;50.926;5.340;2022-09-28T07:17:58;9.70;99.90
17992;DHT22;9121;50.926;5.340;2022-09-28T07:20:25;9.70;99.90
17992;DHT22;9121;50.926;5.340;2022-09-28T07:22:53;9.80;99.90
17992;DHT22;9121;50.926;5.340;2022-09-28T07:25:20;9.90;99.90
17992;DHT22;9121;50.926;5.340;2022-09-28T07:27:47;9.90;99.90
17992;DHT22;9121;50.926;5.340;2022-09-28T07:30:15;9.90;99.90
17992;DHT22;9121;50.926;5.340;2022-09-28T07:32:44;10.00;99.90
17992;DHT22;9121;50.926;5.340;2022-09-28T07:35:11;10.20;99.90
17992;DHT22;9121;50.926;5.340;2022-09-28T07:37:38;10.20;99.90
17992;DHT22;9121;50.926;5.340;2022-09-28T07:40:06;10.10;99.90
17992;DHT22;9121;50.926;5.340;2022-09-28T07:42:51;10.30;99.90
17992;DHT22;9121;50.926;5.340;2022-09-28T07:45:18;10.40;99.90
17992;DHT22;9121;50.926;5.340;2022-09-28T07:47:49;10.40;99.90
17992;DHT22;9121;50.926;5.340;2022-09-28T07:50:16;10.50;99.90
17992;DHT22;9121;50.926;5.340;2022-09-28T07:52:45;10.50;99.90
17992;DHT22;9121;50.926;5.340;2022-09-28T07:55:12;10.50;99.90
17992;DHT22;9121;50.926;5.340;2022-09-28T07:57:39;10.50;99.90
17992;DHT22;9121;50.926;5.340;2022-09-28T08:00:07;10.50;99.90
17992;DHT22;9121;50.926;5.340;2022-09-28T08:02:35;10.60;99.90
17992;DHT22;9121;50.926;5.340;2022-09-28T08:05:05;10.70;99.90
17992;DHT22;9121;50.926;5.340;2022-09-28T08:07:34;10.80;99.90
17992;DHT22;9121;50.926;5.340;2022-09-28T08:10:03;10.90;99.90
17992;DHT22;9121;50.926;5.340;2022-09-28T08:12:30;11.00;99.90
17992;DHT22;9121;50.926;5.340;2022-09-28T08:14:57;11.00;99.90
17992;DHT22;9121;50.926;5.340;2022-09-28T08:17:25;11.00;99.90
17992;DHT22;9121;50.926;5.340;2022-09-28T08:19:52;11.00;99.90
17992;DHT22;9121;50.926;5.340;2022-09-28T08:22:37;11.10;99.90
17992;DHT22;9121;50.926;5.340;2022-09-28T08:25:05;11.20;99.90
17992;DHT22;9121;50.926;5.340;2022-09-28T08:27:32;11.20;99.90
17992;DHT22;9121;50.926;5.340;2022-09-28T08:29:59;11.20;99.90
17992;DHT22;9121;50.926;5.340;2022-09-28T08:32:26;11.30;99.90
17992;DHT22;9121;50.926;5.340;2022-09-28T08:34:54;11.30;99.90
17992;DHT22;9121;50.926;5.340;2022-09-28T08:37:21;11.40;99.90
17992;DHT22;9121;50.926;5.340;2022-09-28T08:39:49;11.60;99.90
17992;DHT22;9121;50.926;5.340;2022-09-28T08:42:31;11.60;99.90
17992;DHT22;9121;50.926;5.340;2022-09-28T08:45:05;11.70;99.90
17992;DHT22;9121;50.926;5.340;2022-09-28T08:47:44;11.90;99.90
17992;DHT22;9121;50.926;5.340;2022-09-28T08:50:35;11.90;99.90
17992;DHT22;9121;50.926;5.340;2022-09-28T08:53:12;11.90;99.90
17992;DHT22;9121;50.926;5.340;2022-09-28T08:55:42;12.00;99.90
17992;DHT22;9121;50.926;5.340;2022-09-28T08:58:13;12.20;99.90
17992;DHT22;9121;50.926;5.340;2022-09-28T09:00:45;12.30;99.90
17992;DHT22;9121;50.926;5.340;2022-09-28T09:03:17;12.40;99.90
17992;DHT22;9121;50.926;5.340;2022-09-28T09:05:54;12.50;99.90
17992;DHT22;9121;50.926;5.340;2022-09-28T09:08:40;12.70;99.90
17992;DHT22;9121;50.926;5.340;2022-09-28T09:11:20;12.90;99.90
17992;DHT22;9121;50.926;5.340;2022-09-28T09:14:03;13.10;99.90
17992;DHT22;9121;50.926;5.340;2022-09-28T09:16:42;13.50;99.90
17992;DHT22;9121;50.926;5.340;2022-09-28T09:19:15;13.80;99.90
17992;DHT22;9121;50.926;5.340;2022-09-28T09:21:48;13.70;99.90
17992;DHT22;9121;50.926;5.340;2022-09-28T09:24:24;13.50;99.90
17992;DHT22;9121;50.926;5.340;2022-09-28T09:27:03;13.10;99.90
17992;DHT22;9121;50.926;5.340;2022-09-28T09:29:44;13.00;99.90
17992;DHT22;9121;50.926;5.340;2022-09-28T09:32:26;13.00;99.90
17992;DHT22;9121;50.926;5.340;2022-09-28T09:35:14;13.00;99.90
17992;DHT22;9121;50.926;5.340;2022-09-28T09:38:01;13.00;99.90
17992;DHT22;9121;50.926;5.340;2022-09-28T09:40:55;13.00;99.90
17992;DHT22;9121;50.926;5.340;2022-09-28T09:43:55;13.10;99.90
17992;DHT22;9121;50.926;5.340;2022-09-28T09:46:33;13.10;99.90
17992;DHT22;9121;50.926;5.340;2022-09-28T09:49:07;13.20;99.90
17992;DHT22;9121;50.926;5.340;2022-09-28T09:51:38;13.30;99.90
17992;DHT22;9121;50.926;5.340;2022-09-28T09:54:12;13.30;99.90
17992;DHT22;9121;50.926;5.340;2022-09-28T09:56:46;13.30;99.90
17992;DHT22;9121;50.926;5.340;2022-09-28T09:59:19;13.30;99.90
17992;DHT22;9121;50.926;5.340;2022-09-28T10:01:49;13.30;99.90
17992;DHT22;9121;50.926;5.340;2022-09-28T10:04:22;13.40;99.90
17992;DHT22;9121;50.926;5.340;2022-09-28T10:06:54;13.40;99.90
17992;DHT22;9121;50.926;5.340;2022-09-28T10:09:24;13.50;99.90
17992;DHT22;9121;50.926;5.340;2022-09-28T10:11:53;13.60;99.90
17992;DHT22;9121;50.926;5.340;2022-09-28T10:14:23;13.50;99.90
17992;DHT22;9121;50.926;5.340;2022-09-28T10:16:52;13.50;99.90
17992;DHT22;9121;50.926;5.340;2022-09-28T10:19:26;13.40;99.90
17992;DHT22;9121;50.926;5.340;2022-09-28T10:21:55;13.50;99.90
17992;DHT22;9121;50.926;5.340;2022-09-28T10:24:28;13.70;99.90
17992;DHT22;9121;50.926;5.340;2022-09-28T10:26:59;13.80;99.90
17992;DHT22;9121;50.926;5.340;2022-09-28T10:29:38;13.90;99.90
17992;DHT22;9121;50.926;5.340;2022-09-28T10:32:18;14.00;99.90
17992;DHT22;9121;50.926;5.340;2022-09-28T10:34:45;14.00;99.90
17992;DHT22;9121;50.926;5.340;2022-09-28T10:37:12;14.00;99.90
17992;DHT22;9121;50.926;5.340;2022-09-28T10:39:44;13.90;99.90
17992;DHT22;9121;50.926;5.340;2022-09-28T10:42:18;13.90;99.90
17992;DHT22;9121;50.926;5.340;2022-09-28T10:44:53;14.20;99.90
17992;DHT22;9121;50.926;5.340;2022-09-28T10:47:22;14.40;99.90
17992;DHT22;9121;50.926;5.340;2022-09-28T10:49:51;14.70;99.90
17992;DHT22;9121;50.926;5.340;2022-09-28T10:52:34;14.80;99.90
17992;DHT22;9121;50.926;5.340;2022-09-28T10:55:02;14.80;99.90
17992;DHT22;9121;50.926;5.340;2022-09-28T10:57:33;14.70;99.90
17992;DHT22;9121;50.926;5.340;2022-09-28T11:00:03;14.60;99.90
17992;DHT22;9121;50.926;5.340;2022-09-28T11:02:33;14.60;99.90
17992;DHT22;9121;50.926;5.340;2022-09-28T11:05:03;14.40;99.90
17992;DHT22;9121;50.926;5.340;2022-09-28T11:07:32;14.30;99.90
17992;DHT22;9121;50.926;5.340;2022-09-28T11:10:00;14.50;99.90
17992;DHT22;9121;50.926;5.340;2022-09-28T11:12:36;14.60;99.90
17992;DHT22;9121;50.926;5.340;2022-09-28T11:15:10;14.80;99.90
17992;DHT22;9121;50.926;5.340;2022-09-28T11:17:41;14.90;99.90
17992;DHT22;9121;50.926;5.340;2022-09-28T11:20:33;15.00;99.90
17992;DHT22;9121;50.926;5.340;2022-09-28T11:23:19;14.90;99.90
17992;DHT22;9121;50.926;5.340;2022-09-28T11:25:58;14.90;99.90
17992;DHT22;9121;50.926;5.340;2022-09-28T11:28:29;15.00;99.90
17992;DHT22;9121;50.926;5.340;2022-09-28T11:30:59;14.90;99.90
17992;DHT22;9121;50.926;5.340;2022-09-28T11:33:30;14.90;99.90
17992;DHT22;9121;50.926;5.340;2022-09-28T11:36:24;14.80;99.90
17992;DHT22;9121;50.926;5.340;2022-09-28T11:38:59;14.80;99.90
17992;DHT22;9121;50.926;5.340;2022-09-28T11:41:53;14.90;99.90
17992;DHT22;9121;50.926;5.340;2022-09-28T11:44:38;15.00;99.90
17992;DHT22;9121;50.926;5.340;2022-09-28T11:47:45;14.90;99.90
17992;DHT22;9121;50.926;5.340;2022-09-28T11:50:20;14.80;99.90
17992;DHT22;9121;50.926;5.340;2022-09-28T11:52:54;14.70;99.90
17992;DHT22;9121;50.926;5.340;2022-09-28T11:55:26;14.70;99.90
17992;DHT22;9121;50.926;5.340;2022-09-28T11:58:00;14.70;99.90
17992;DHT22;9121;50.926;5.340;2022-09-28T12:00:31;14.70;99.90
17992;DHT22;9121;50.926;5.340;2022-09-28T12:03:04;14.70;99.90
17992;DHT22;9121;50.926;5.340;2022-09-28T12:05:35;14.80;99.90
17992;DHT22;9121;50.926;5.340;2022-09-28T12:08:10;14.80;99.90
17992;DHT22;9121;50.926;5.340;2022-09-28T12:10:43;14.90;99.90
17992;DHT22;9121;50.926;5.340;2022-09-28T12:13:15;15.00;99.90
17992;DHT22;9121;50.926;5.340;2022-09-28T12:15:47;15.00;99.90
17992;DHT22;9121;50.926;5.340;2022-09-28T12:18:21;15.10;99.90
17992;DHT22;9121;50.926;5.340;2022-09-28T12:20:58;15.20;99.90
17992;DHT22;9121;50.926;5.340;2022-09-28T12:23:32;15.30;99.90
17992;DHT22;9121;50.926;5.340;2022-09-28T12:26:02;15.30;99.90
17992;DHT22;9121;50.926;5.340;2022-09-28T12:28:35;15.30;99.90
17992;DHT22;9121;50.926;5.340;2022-09-28T12:31:11;15.40;99.90
17992;DHT22;9121;50.926;5.340;2022-09-28T12:33:45;15.50;99.90
17992;DHT22;9121;50.926;5.340;2022-09-28T12:36:21;15.70;99.90
17992;DHT22;9121;50.926;5.340;2022-09-28T12:39:04;15.90;99.90
17992;DHT22;9121;50.926;5.340;2022-09-28T12:41:44;16.00;99.90
17992;DHT22;9121;50.926;5.340;2022-09-28T12:44:28;16.30;99.90
17992;DHT22;9121;50.926;5.340;2022-09-28T12:47:16;16.50;99.90
17992;DHT22;9121;50.926;5.340;2022-09-28T12:49:59;16.30;99.90
17992;DHT22;9121;50.926;5.340;2022-09-28T12:52:35;16.00;99.90
17992;DHT22;9121;50.926;5.340;2022-09-28T12:55:14;15.50;99.90
17992;DHT22;9121;50.926;5.340;2022-09-28T12:57:52;15.20;99.90
17992;DHT22;9121;50.926;5.340;2022-09-28T13:00:22;14.90;99.90
17992;DHT22;9121;50.926;5.340;2022-09-28T13:03:08;14.70;99.90
17992;DHT22;9121;50.926;5.340;2022-09-28T13:08:51;14.40;99.90
17992;DHT22;9121;50.926;5.340;2022-09-28T13:11:27;14.50;99.90
17992;DHT22;9121;50.926;5.340;2022-09-28T13:14:09;14.70;99.90
17992;DHT22;9121;50.926;5.340;2022-09-28T13:16:44;14.70;99.90
17992;DHT22;9121;50.926;5.340;2022-09-28T13:19:16;14.80;99.90
17992;DHT22;9121;50.926;5.340;2022-09-28T13:21:54;14.80;99.90
17992;DHT22;9121;50.926;5.340;2022-09-28T13:24:26;14.80;99.90
17992;DHT22;9121;50.926;5.340;2022-09-28T13:26:56;14.80;99.90
17992;DHT22;9121;50.926;5.340;2022-09-28T13:29:24;14.70;99.90
17992;DHT22;9121;50.926;5.340;2022-09-28T13:31:53;14.70;99.90
17992;DHT22;9121;50.926;5.340;2022-09-28T13:34:24;14.70;99.90
17992;DHT22;9121;50.926;5.340;2022-09-28T13:37:18;15.00;99.90
17992;DHT22;9121;50.926;5.340;2022-09-28T13:39:50;15.20;99.90
17992;DHT22;9121;50.926;5.340;2022-09-28T13:42:39;15.10;99.90
17992;DHT22;9121;50.926;5.340;2022-09-28T13:45:34;15.30;99.90
17992;DHT22;9121;50.926;5.340;2022-09-28T13:48:15;15.80;99.90
17992;DHT22;9121;50.926;5.340;2022-09-28T13:51:05;16.40;99.90
17992;DHT22;9121;50.926;5.340;2022-09-28T13:53:59;17.10;99.90
17992;DHT22;9121;50.926;5.340;2022-09-28T13:56:35;17.90;99.90
17992;DHT22;9121;50.926;5.340;2022-09-28T13:59:11;18.40;99.90
17992;DHT22;9121;50.926;5.340;2022-09-28T14:01:42;18.20;99.90
17992;DHT22;9121;50.926;5.340;2022-09-28T14:04:14;17.50;99.90
17992;DHT22;9121;50.926;5.340;2022-09-28T14:06:49;16.40;99.90
17992;DHT22;9121;50.926;5.340;2022-09-28T14:09:40;15.50;99.90
17992;DHT22;9121;50.926;5.340;2022-09-28T14:12:44;15.00;99.90
17992;DHT22;9121;50.926;5.340;2022-09-28T14:15:44;14.70;99.90
17992;DHT22;9121;50.926;5.340;2022-09-28T14:18:21;14.40;99.90
17992;DHT22;9121;50.926;5.340;2022-09-28T14:20:59;14.10;99.90
17992;DHT22;9121;50.926;5.340;2022-09-28T14:23:40;14.00;99.90
17992;DHT22;9121;50.926;5.340;2022-09-28T14:26:35;13.80;99.90
17992;DHT22;9121;50.926;5.340;2022-09-28T14:29:19;13.60;99.90
17992;DHT22;9121;50.926;5.340;2022-09-28T14:31:54;13.50;99.90
17992;DHT22;9121;50.926;5.340;2022-09-28T14:34:30;13.40;99.90
17992;DHT22;9121;50.926;5.340;2022-09-28T14:36:59;13.40;99.90
17992;DHT22;9121;50.926;5.340;2022-09-28T14:39:45;13.50;99.90
17992;DHT22;9121;50.926;5.340;2022-09-28T14:42:32;13.40;99.90
17992;DHT22;9121;50.926;5.340;2022-09-28T14:48:12;13.40;99.90
17992;DHT22;9121;50.926;5.340;2022-09-28T14:50:40;13.40;99.90
17992;DHT22;9121;50.926;5.340;2022-09-28T14:53:10;13.40;99.90
17992;DHT22;9121;50.926;5.340;2022-09-28T14:55:44;13.50;99.90
17992;DHT22;9121;50.926;5.340;2022-09-28T14:58:18;13.50;99.90
17992;DHT22;9121;50.926;5.340;2022-09-28T15:00:49;13.60;99.90
17992;DHT22;9121;50.926;5.340;2022-09-28T15:03:17;13.70;99.90
17992;DHT22;9121;50.926;5.340;2022-09-28T15:05:47;13.80;99.90
17992;DHT22;9121;50.926;5.340;2022-09-28T15:08:14;13.90;99.90
17992;DHT22;9121;50.926;5.340;2022-09-28T15:10:45;13.90;99.90
17992;DHT22;9121;50.926;5.340;2022-09-28T15:13:23;13.90;99.90
17992;DHT22;9121;50.926;5.340;2022-09-28T15:15:53;14.00;99.90
17992;DHT22;9121;50.926;5.340;2022-09-28T15:18:55;14.00;99.90
17992;DHT22;9121;50.926;5.340;2022-09-28T15:21:35;14.00;99.90
17992;DHT22;9121;50.926;5.340;2022-09-28T15:24:23;13.90;99.90
17992;DHT22;9121;50.926;5.340;2022-09-28T15:26:50;13.90;99.90
17992;DHT22;9121;50.926;5.340;2022-09-28T15:29:19;13.80;99.90
17992;DHT22;9121;50.926;5.340;2022-09-28T15:31:47;13.80;99.90
17992;DHT22;9121;50.926;5.340;2022-09-28T15:34:29;13.90;99.90
17992;DHT22;9121;50.926;5.340;2022-09-28T15:37:16;14.00;99.90
17992;DHT22;9121;50.926;5.340;2022-09-28T15:39:45;14.20;99.90
17992;DHT22;9121;50.926;5.340;2022-09-28T15:42:13;14.30;99.90
17992;DHT22;9121;50.926;5.340;2022-09-28T15:44:58;14.40;99.90
17992;DHT22;9121;50.926;5.340;2022-09-28T15:47:27;14.40;99.90
17992;DHT22;9121;50.926;5.340;2022-09-28T15:49:58;14.60;99.90
17992;DHT22;9121;50.926;5.340;2022-09-28T15:52:30;14.70;99.90
17992;DHT22;9121;50.926;5.340;2022-09-28T15:55:02;14.70;99.90
17992;DHT22;9121;50.926;5.340;2022-09-28T15:57:35;14.70;99.90
17992;DHT22;9121;50.926;5.340;2022-09-28T16:00:20;14.60;99.90
17992;DHT22;9121;50.926;5.340;2022-09-28T16:03:16;14.50;99.90
17992;DHT22;9121;50.926;5.340;2022-09-28T16:05:47;14.50;99.90
17992;DHT22;9121;50.926;5.340;2022-09-28T16:08:16;14.40;99.90
17992;DHT22;9121;50.926;5.340;2022-09-28T16:10:56;14.40;99.90
17992;DHT22;9121;50.926;5.340;2022-09-28T16:13:24;14.30;99.90
17992;DHT22;9121;50.926;5.340;2022-09-28T16:15:56;14.30;99.90
17992;DHT22;9121;50.926;5.340;2022-09-28T16:18:25;14.30;99.90
17992;DHT22;9121;50.926;5.340;2022-09-28T16:20:53;14.30;99.90
17992;DHT22;9121;50.926;5.340;2022-09-28T16:23:24;14.20;99.90
17992;DHT22;9121;50.926;5.340;2022-09-28T16:25:54;14.20;99.90
17992;DHT22;9121;50.926;5.340;2022-09-28T16:28:46;14.10;99.90
17992;DHT22;9121;50.926;5.340;2022-09-28T16:31:29;14.00;99.90
17992;DHT22;9121;50.926;5.340;2022-09-28T16:33:59;13.90;99.90